Time;durP1;ratioP1;P1;durP2;ratioP2;P2;SDS_P1;SDS_P2;PMS_P1;PMS_P2;Temp;Humidity;BMP_temperature;BMP_pressure;BME280_temperature;BME280_humidity;BME280_pressure;Samples;Min_cycle;Max_cycle;Signal;HPM_P1;HPM_P2
2020/12/12 00:00:55;;;;;;;11.40;10.33;;;6.10;61.10;;;;;;5075952;28;20599;-57
2020/12/12 00:03:21;;;;;;;12.03;10.83;;;6.10;61.20;;;;;;5075619;28;20298;-61
2020/12/12 00:05:47;;;;;;;10.90;9.90;;;6.20;61.30;;;;;;5078721;28;20223;-59
2020/12/12 00:08:14;;;;;;;10.60;9.60;;;6.20;61.20;;;;;;5078611;28;20197;-60
2020/12/12 00:10:41;;;;;;;11.17;10.13;;;6.30;61.30;;;;;;5078878;28;20224;-59
2020/12/12 00:13:08;;;;;;;11.20;10.20;;;6.30;61.30;;;;;;5075672;28;20221;-57
2020/12/12 00:15:35;;;;;;;10.83;9.87;;;6.30;61.10;;;;;;5072769;28;20334;-55
2020/12/12 00:18:02;;;;;;;10.37;9.40;;;6.30;61.00;;;;;;5077398;28;20539;-56
2020/12/12 00:20:29;;;;;;;11.40;10.30;;;6.30;60.90;;;;;;5076700;28;20236;-56
2020/12/12 00:22:56;;;;;;;10.30;9.40;;;6.30;60.80;;;;;;5075594;28;20270;-59
2020/12/12 00:25:22;;;;;;;10.10;9.20;;;6.40;60.90;;;;;;5077302;28;20201;-58
2020/12/12 00:27:49;;;;;;;11.07;10.07;;;6.40;60.90;;;;;;5074015;28;20204;-56
2020/12/12 00:30:16;;;;;;;10.90;9.93;;;6.40;60.80;;;;;;5076375;28;20252;-60
2020/12/12 00:32:42;;;;;;;10.40;9.40;;;6.40;60.80;;;;;;5076352;28;20215;-61
2020/12/12 00:35:08;;;;;;;11.10;10.10;;;6.40;60.90;;;;;;5075814;28;20216;-56
2020/12/12 00:37:35;;;;;;;11.27;10.27;;;6.40;60.90;;;;;;5074770;28;20204;-60
2020/12/12 00:40:01;;;;;;;11.70;10.70;;;6.40;60.80;;;;;;5076756;28;20220;-55
2020/12/12 00:42:27;;;;;;;11.73;10.73;;;6.50;60.80;;;;;;5076707;28;20227;-57
2020/12/12 00:44:55;;;;;;;12.70;11.50;;;6.40;60.60;;;;;;5073133;28;20209;-55
2020/12/12 00:47:21;;;;;;;11.37;10.37;;;6.40;60.60;;;;;;5076325;28;20205;-55
2020/12/12 00:49:48;;;;;;;11.50;10.40;;;6.40;60.60;;;;;;5075555;28;20235;-58
2020/12/12 00:52:14;;;;;;;12.17;11.00;;;6.40;60.60;;;;;;5075686;28;20201;-58
2020/12/12 00:54:41;;;;;;;12.47;11.27;;;6.40;60.60;;;;;;5075765;28;20223;-57
2020/12/12 00:57:09;;;;;;;12.57;11.37;;;6.40;60.60;;;;;;5076790;28;20204;-59
2020/12/12 00:59:35;;;;;;;12.10;11.00;;;6.40;60.70;;;;;;5079366;28;20196;-60
2020/12/12 01:02:03;;;;;;;11.30;10.30;;;6.40;60.60;;;;;;5075707;28;20205;-59
2020/12/12 01:04:29;;;;;;;11.63;10.60;;;6.40;60.70;;;;;;5077420;28;20200;-55
2020/12/12 01:06:55;;;;;;;11.47;10.47;;;6.40;60.80;;;;;;5077148;28;20295;-57
2020/12/12 01:09:22;;;;;;;10.57;9.67;;;6.30;60.80;;;;;;5075278;28;20222;-56
2020/12/12 01:11:48;;;;;;;11.67;10.60;;;6.30;61.60;;;;;;5068472;28;20205;-58
2020/12/12 01:14:15;;;;;;;10.57;9.67;;;6.40;61.00;;;;;;5073423;28;20232;-57
2020/12/12 01:16:41;;;;;;;11.60;10.60;;;6.40;61.00;;;;;;5077785;28;20204;-58
2020/12/12 01:19:09;;;;;;;11.53;10.53;;;6.40;61.00;;;;;;5077563;28;20204;-60
2020/12/12 01:21:38;;;;;;;10.87;9.93;;;6.40;61.00;;;;;;5078049;28;20576;-58
2020/12/12 01:24:05;;;;;;;11.37;10.37;;;6.50;60.90;;;;;;5076408;28;20220;-60
2020/12/12 01:26:32;;;;;;;11.57;10.37;;;6.50;60.80;;;;;;5075913;28;20204;-57
2020/12/12 01:28:59;;;;;;;10.97;10.00;;;6.50;60.80;;;;;;5075937;28;20589;-58
2020/12/12 01:31:26;;;;;;;10.83;9.83;;;6.40;60.80;;;;;;5076480;28;20311;-60
2020/12/12 01:33:52;;;;;;;10.30;9.30;;;6.50;60.80;;;;;;5075796;28;20196;-59
2020/12/12 01:36:20;;;;;;;9.60;8.80;;;6.50;60.90;;;;;;5076751;28;20204;-59
2020/12/12 01:38:46;;;;;;;10.30;9.30;;;6.50;60.90;;;;;;5076031;28;20219;-58
2020/12/12 01:41:13;;;;;;;9.90;9.00;;;6.50;61.00;;;;;;5075342;28;20306;-58
2020/12/12 01:43:39;;;;;;;10.57;9.60;;;6.50;61.00;;;;;;5075905;28;20205;-58
2020/12/12 01:46:06;;;;;;;10.83;9.83;;;6.50;61.00;;;;;;5073983;28;20201;-56
2020/12/12 01:48:33;;;;;;;11.33;10.33;;;6.60;61.00;;;;;;5076484;28;20694;-57
2020/12/12 01:51:00;;;;;;;9.50;8.70;;;6.60;60.80;;;;;;5074780;28;20227;-59
2020/12/12 01:53:28;;;;;;;10.47;9.57;;;6.60;60.80;;;;;;5075689;28;20213;-60
2020/12/12 01:55:55;;;;;;;11.17;10.17;;;6.60;60.80;;;;;;5075120;28;20229;-59
2020/12/12 01:58:21;;;;;;;10.03;9.07;;;6.60;60.70;;;;;;5076369;28;20693;-58
2020/12/12 02:00:48;;;;;;;11.23;10.23;;;6.60;60.60;;;;;;5071328;28;20600;-59
2020/12/12 02:03:15;;;;;;;10.83;9.83;;;6.70;60.50;;;;;;5075882;28;20216;-57
2020/12/12 02:05:45;;;;;;;10.67;9.67;;;6.60;60.50;;;;;;5075026;28;20666;-56
2020/12/12 02:08:14;;;;;;;10.53;9.53;;;6.60;60.40;;;;;;5078074;28;20701;-58
2020/12/12 02:10:44;;;;;;;9.83;8.93;;;6.60;60.30;;;;;;5076951;28;20883;-58
2020/12/12 02:13:13;;;;;;;9.93;9.03;;;6.60;60.30;;;;;;5078827;28;20216;-59
2020/12/12 02:15:41;;;;;;;11.97;10.90;;;6.60;60.30;;;;;;5079107;28;20702;-59
2020/12/12 02:18:18;;;;;;;11.13;10.13;;;6.50;61.00;;;;;;5079760;28;20200;-56
2020/12/12 02:20:51;;;;;;;10.37;9.37;;;6.50;60.20;;;;;;5078125;28;20248;-57
2020/12/12 02:23:19;;;;;;;10.83;9.83;;;6.50;60.20;;;;;;5078422;28;20265;-56
2020/12/12 02:25:45;;;;;;;11.13;10.07;;;6.50;60.30;;;;;;5077436;28;20208;-57
2020/12/12 02:28:15;;;;;;;10.80;9.80;;;6.50;60.30;;;;;;5080083;28;20697;-56
2020/12/12 02:30:41;;;;;;;11.17;10.17;;;6.40;60.30;;;;;;5080067;28;20223;-55
2020/12/12 02:33:07;;;;;;;10.80;9.90;;;6.40;60.30;;;;;;5072112;28;20209;-56
2020/12/12 02:35:34;;;;;;;10.50;9.50;;;6.40;60.40;;;;;;5074945;28;20641;-57
2020/12/12 02:38:01;;;;;;;10.03;9.13;;;6.30;60.40;;;;;;5073348;28;20211;-56
2020/12/12 02:40:28;;;;;;;10.53;9.53;;;6.30;60.50;;;;;;5080579;28;20228;-58
2020/12/12 02:42:54;;;;;;;10.43;9.43;;;6.30;60.60;;;;;;5077158;28;20686;-56
2020/12/12 02:45:21;;;;;;;11.17;10.17;;;6.30;60.60;;;;;;5075312;28;20676;-54
2020/12/12 02:47:48;;;;;;;10.80;9.80;;;6.30;60.50;;;;;;5078185;28;20747;-59
2020/12/12 02:50:25;;;;;;;11.37;10.27;;;6.30;60.50;;;;;;5076938;28;20293;-56
2020/12/12 02:52:51;;;;;;;10.57;9.67;;;6.30;60.50;;;;;;5079219;28;20581;-58
2020/12/12 02:55:18;;;;;;;10.87;9.80;;;6.30;60.60;;;;;;5079546;28;20231;-59
2020/12/12 02:57:46;;;;;;;11.07;10.07;;;6.20;60.60;;;;;;5077661;28;20560;-60
2020/12/12 03:00:15;;;;;;;10.57;9.67;;;6.20;60.60;;;;;;5077681;28;20728;-59
2020/12/12 03:02:42;;;;;;;9.70;8.90;;;6.20;60.60;;;;;;5079326;28;20207;-59
2020/12/12 03:05:09;;;;;;;9.90;9.00;;;6.20;60.70;;;;;;5078887;28;20205;-59
2020/12/12 03:07:36;;;;;;;9.10;8.30;;;6.20;60.80;;;;;;5078514;28;20201;-58
2020/12/12 03:10:06;;;;;;;8.97;8.17;;;6.10;60.90;;;;;;5079823;28;20263;-59
2020/12/12 03:12:33;;;;;;;10.07;9.17;;;6.10;61.00;;;;;;5077974;28;20856;-57
2020/12/12 03:15:01;;;;;;;9.40;8.60;;;6.20;61.10;;;;;;5073397;28;20247;-59
2020/12/12 03:17:27;;;;;;;9.27;8.47;;;6.20;61.00;;;;;;5077667;28;20218;-55
2020/12/12 03:19:54;;;;;;;8.93;8.13;;;6.20;61.10;;;;;;5078488;28;20236;-53
2020/12/12 03:22:20;;;;;;;8.60;7.87;;;6.20;61.10;;;;;;5078192;28;20204;-56
2020/12/12 03:24:47;;;;;;;9.23;8.43;;;6.20;61.20;;;;;;5076341;28;20204;-57
2020/12/12 03:27:14;;;;;;;8.63;7.83;;;6.30;61.30;;;;;;5077894;28;20198;-58
2020/12/12 03:29:40;;;;;;;8.97;8.17;;;6.30;61.30;;;;;;5079155;28;20307;-58
2020/12/12 03:32:09;;;;;;;8.10;7.40;;;6.30;61.30;;;;;;5075113;28;20208;-56
2020/12/12 03:34:37;;;;;;;9.20;8.40;;;6.40;61.30;;;;;;5076900;28;20224;-57
2020/12/12 03:37:05;;;;;;;8.43;7.63;;;6.40;61.40;;;;;;5076586;28;20213;-58
2020/12/12 03:39:32;;;;;;;8.80;8.00;;;6.50;61.40;;;;;;5079080;28;20279;-59
2020/12/12 03:41:59;;;;;;;8.73;8.03;;;6.50;61.30;;;;;;5073647;28;20204;-59
2020/12/12 03:44:26;;;;;;;8.70;8.00;;;6.60;61.30;;;;;;5078146;28;20535;-59
2020/12/12 03:46:53;;;;;;;8.70;7.90;;;6.60;61.20;;;;;;5078669;28;20204;-59
2020/12/12 03:49:20;;;;;;;8.60;7.80;;;6.70;61.20;;;;;;5078693;28;20212;-59
2020/12/12 03:51:46;;;;;;;8.43;7.73;;;6.70;61.90;;;;;;5076904;28;20752;-58
2020/12/12 03:54:13;;;;;;;10.10;9.20;;;6.80;61.00;;;;;;5078003;28;20209;-60
2020/12/12 03:56:39;;;;;;;9.40;8.60;;;6.80;60.80;;;;;;5078234;28;20205;-60
2020/12/12 03:59:05;;;;;;;9.10;8.30;;;6.80;60.60;;;;;;5078355;28;20703;-60
2020/12/12 04:01:32;;;;;;;9.00;8.20;;;6.80;60.50;;;;;;5077432;28;20243;-59
2020/12/12 04:03:58;;;;;;;9.63;8.73;;;6.80;60.50;;;;;;5078565;28;20208;-58
2020/12/12 04:06:26;;;;;;;8.17;7.47;;;6.80;60.50;;;;;;5079459;28;20196;-57
2020/12/12 04:08:52;;;;;;;9.23;8.43;;;6.80;60.40;;;;;;5077266;28;20205;-58
2020/12/12 04:11:18;;;;;;;9.07;8.37;;;6.80;60.40;;;;;;5077546;28;20312;-57
2020/12/12 04:13:45;;;;;;;6.63;6.10;;;6.90;60.20;;;;;;5076379;28;20208;-53
2020/12/12 04:16:11;;;;;;;7.70;7.10;;;6.80;60.20;;;;;;5076634;28;20325;-57
2020/12/12 04:18:37;;;;;;;8.43;7.73;;;6.90;60.30;;;;;;5078056;28;20735;-61
2020/12/12 04:21:08;;;;;;;8.63;7.93;;;6.90;60.30;;;;;;5078205;28;20221;-57
2020/12/12 04:23:36;;;;;;;8.50;7.80;;;6.90;60.30;;;;;;5078043;28;20201;-59
2020/12/12 04:26:04;;;;;;;8.43;7.73;;;6.90;60.40;;;;;;5076476;28;20196;-57
2020/12/12 04:28:30;;;;;;;8.43;7.73;;;6.90;60.40;;;;;;5077600;28;20303;-60
2020/12/12 04:30:56;;;;;;;8.10;7.50;;;6.90;60.30;;;;;;5075195;28;20236;-61
2020/12/12 04:33:23;;;;;;;8.13;7.43;;;6.90;60.20;;;;;;5076370;28;20212;-59
2020/12/12 04:35:49;;;;;;;8.43;7.63;;;6.90;60.20;;;;;;5074772;28;20220;-59
2020/12/12 04:38:15;;;;;;;8.70;8.00;;;7.00;60.10;;;;;;5077387;28;20205;-57
2020/12/12 04:40:43;;;;;;;8.43;7.73;;;7.00;60.10;;;;;;5074103;28;20229;-60
2020/12/12 04:43:10;;;;;;;7.90;7.30;;;7.00;60.00;;;;;;5075189;28;20217;-58
2020/12/12 04:45:42;;;;;;;7.60;6.90;;;7.00;60.10;;;;;;5077895;28;20419;-57
2020/12/12 04:48:08;;;;;;;7.27;6.67;;;7.00;60.20;;;;;;5077637;28;20568;-59
2020/12/12 04:50:35;;;;;;;8.20;7.50;;;7.00;60.10;;;;;;5076114;28;20239;-58
2020/12/12 04:53:13;;;;;;;8.13;7.43;;;7.00;60.00;;;;;;5076308;28;20212;-54
2020/12/12 04:55:45;;;;;;;7.27;6.67;;;7.10;60.00;;;;;;5077326;28;20220;-58
2020/12/12 04:58:16;;;;;;;8.03;7.33;;;7.10;60.00;;;;;;5077538;28;20223;-56
2020/12/12 05:00:48;;;;;;;9.07;8.27;;;7.10;60.00;;;;;;5075404;28;20236;-57
2020/12/12 05:03:17;;;;;;;8.50;7.70;;;7.10;59.90;;;;;;5075648;28;20283;-60
2020/12/12 05:05:45;;;;;;;7.90;7.20;;;7.10;59.90;;;;;;5076956;28;20200;-56
2020/12/12 05:08:12;;;;;;;8.53;7.80;;;7.20;60.00;;;;;;5075155;28;20676;-59
2020/12/12 05:10:41;;;;;;;8.97;8.17;;;7.10;60.00;;;;;;5074961;28;20249;-56
2020/12/12 05:13:19;;;;;;;8.73;8.00;;;7.20;59.90;;;;;;5076129;28;20215;-57
2020/12/12 05:15:47;;;;;;;8.17;7.47;;;7.20;59.90;;;;;;5074742;28;20228;-60
2020/12/12 05:18:14;;;;;;;8.90;8.10;;;7.20;60.00;;;;;;5074669;28;20580;-58
2020/12/12 05:20:41;;;;;;;8.50;7.80;;;7.20;60.00;;;;;;5076070;28;20231;-59
2020/12/12 05:23:11;;;;;;;8.97;8.27;;;7.20;60.00;;;;;;5076320;28;20208;-60
2020/12/12 05:25:39;;;;;;;8.33;7.63;;;7.20;60.00;;;;;;5072715;28;20201;-61
2020/12/12 05:28:07;;;;;;;9.03;8.20;;;7.30;60.10;;;;;;5076744;28;20205;-57
2020/12/12 05:30:36;;;;;;;9.83;8.93;;;7.30;60.10;;;;;;5074955;28;20230;-59
2020/12/12 05:33:04;;;;;;;10.40;9.30;;;7.40;60.10;;;;;;5075189;28;20673;-59
2020/12/12 05:35:31;;;;;;;9.53;8.73;;;7.40;60.00;;;;;;5075511;28;20220;-58
2020/12/12 05:38:00;;;;;;;8.83;8.13;;;7.40;59.90;;;;;;5077027;28;21689;-60
2020/12/12 05:40:26;;;;;;;10.10;9.20;;;7.40;59.90;;;;;;5076968;28;20248;-56
2020/12/12 05:42:53;;;;;;;8.87;8.17;;;7.40;59.80;;;;;;5077942;28;20267;-56
2020/12/12 05:45:19;;;;;;;8.20;7.50;;;7.40;59.80;;;;;;5080693;28;20208;-57
2020/12/12 05:47:47;;;;;;;9.17;8.37;;;7.40;59.80;;;;;;5079978;28;20207;-55
2020/12/12 05:50:13;;;;;;;8.80;8.10;;;7.40;59.90;;;;;;5080878;28;20634;-59
2020/12/12 05:52:41;;;;;;;9.30;8.43;;;7.50;59.80;;;;;;5079573;28;21442;-59
2020/12/12 05:55:08;;;;;;;8.43;7.73;;;7.50;59.90;;;;;;5079726;28;20331;-58
2020/12/12 05:57:37;;;;;;;8.07;7.40;;;7.50;59.90;;;;;;5080761;28;20215;-56
2020/12/12 06:00:06;;;;;;;8.40;7.70;;;7.50;60.00;;;;;;5080361;28;20339;-58
2020/12/12 06:02:36;;;;;;;7.97;7.27;;;7.50;60.00;;;;;;5080218;28;20212;-60
2020/12/12 06:05:06;;;;;;;8.67;7.97;;;7.60;60.00;;;;;;5081475;28;20193;-59
2020/12/12 06:07:34;;;;;;;8.07;7.37;;;7.60;60.00;;;;;;5081187;28;20258;-60
2020/12/12 06:10:04;;;;;;;8.30;7.60;;;7.60;60.00;;;;;;5079647;28;20217;-56
2020/12/12 06:12:31;;;;;;;8.43;7.73;;;7.70;60.00;;;;;;5079702;28;20212;-59
2020/12/12 06:15:00;;;;;;;8.83;8.03;;;7.70;59.90;;;;;;5080439;28;20278;-54
2020/12/12 06:17:53;;;;;;;9.23;8.43;;;7.70;59.90;;;;;;5078141;28;20204;-56
2020/12/12 06:20:21;;;;;;;8.27;7.57;;;7.80;59.90;;;;;;5080400;28;20232;-57
2020/12/12 06:22:50;;;;;;;8.50;7.80;;;7.80;59.80;;;;;;5078978;28;20221;-60
2020/12/12 06:25:21;;;;;;;8.73;8.03;;;7.80;59.80;;;;;;5077787;28;20193;-57
2020/12/12 06:27:54;;;;;;;9.53;8.67;;;7.90;59.80;;;;;;5079194;28;20293;-60
2020/12/12 06:30:25;;;;;;;8.57;7.77;;;7.90;59.70;;;;;;5079316;28;20597;-58
2020/12/12 06:33:00;;;;;;;8.73;7.93;;;7.90;59.60;;;;;;5078265;28;20229;-57
2020/12/12 06:35:32;;;;;;;8.50;7.80;;;7.90;59.50;;;;;;5078143;28;20639;-61
2020/12/12 06:38:23;;;;;;;9.43;8.53;;;7.90;59.50;;;;;;5080762;28;20224;-58
2020/12/12 06:40:51;;;;;;;8.37;7.67;;;8.00;59.50;;;;;;5078470;28;20232;-60
2020/12/12 06:43:30;;;;;;;7.83;7.23;;;8.00;59.50;;;;;;5079583;28;20212;-60
2020/12/12 06:45:57;;;;;;;8.33;7.63;;;8.00;59.50;;;;;;5078708;28;20288;-60
2020/12/12 06:48:26;;;;;;;9.07;8.27;;;8.00;59.50;;;;;;5079936;28;20201;-58
2020/12/12 06:50:55;;;;;;;9.20;8.40;;;8.00;59.50;;;;;;5079475;28;20233;-57
2020/12/12 06:53:24;;;;;;;9.10;8.30;;;8.00;59.50;;;;;;5079289;28;20205;-60
2020/12/12 06:56:12;;;;;;;9.30;8.50;;;8.00;59.50;;;;;;5079015;28;20221;-56
2020/12/12 06:58:40;;;;;;;8.70;7.93;;;8.00;59.40;;;;;;5079331;28;20258;-59
2020/12/12 07:01:27;;;;;;;8.77;8.03;;;8.00;59.50;;;;;;5078896;28;20228;-58
2020/12/12 07:03:58;;;;;;;9.03;8.23;;;8.00;59.50;;;;;;5076424;28;20537;-56
2020/12/12 07:06:28;;;;;;;9.17;8.40;;;8.00;59.50;;;;;;5079161;28;20204;-58
2020/12/12 07:08:59;;;;;;;9.97;9.07;;;8.10;59.60;;;;;;5078349;28;20340;-59
2020/12/12 07:11:27;;;;;;;9.03;8.23;;;8.10;59.50;;;;;;5076046;28;20236;-64
2020/12/12 07:13:54;;;;;;;9.23;8.43;;;8.10;59.60;;;;;;5080772;28;20215;-56
2020/12/12 07:16:22;;;;;;;9.73;8.83;;;8.10;59.50;;;;;;5077905;28;20720;-59
2020/12/12 07:18:50;;;;;;;8.90;8.20;;;8.20;59.60;;;;;;5076901;28;20545;-58
2020/12/12 07:21:17;;;;;;;10.07;9.03;;;8.20;59.60;;;;;;5074945;28;20329;-58
2020/12/12 07:23:45;;;;;;;9.30;8.50;;;8.20;59.60;;;;;;5077956;28;20580;-58
2020/12/12 07:26:11;;;;;;;9.50;8.70;;;8.30;59.60;;;;;;5077168;28;20200;-58
2020/12/12 07:28:39;;;;;;;9.63;8.83;;;8.30;59.60;;;;;;5078566;28;20673;-60
2020/12/12 07:31:05;;;;;;;10.03;9.20;;;8.30;59.60;;;;;;5076398;28;20965;-61
2020/12/12 07:33:32;;;;;;;10.43;9.63;;;8.40;59.60;;;;;;5078176;28;20204;-58
2020/12/12 07:36:00;;;;;;;10.67;9.77;;;8.40;59.50;;;;;;5077873;28;20220;-58
2020/12/12 07:38:28;;;;;;;10.97;10.07;;;8.40;59.50;;;;;;5078316;28;20207;-60
2020/12/12 07:40:55;;;;;;;9.93;9.13;;;8.50;59.40;;;;;;5078067;28;20232;-60
2020/12/12 07:43:22;;;;;;;10.37;9.57;;;8.50;59.40;;;;;;5078749;28;20205;-61
2020/12/12 07:46:05;;;;;;;9.93;9.07;;;8.50;60.00;;;;;;5078474;28;20259;-61
2020/12/12 07:48:31;;;;;;;9.73;8.93;;;8.60;59.40;;;;;;5078276;28;20200;-59
2020/12/12 07:50:58;;;;;;;10.20;9.30;;;8.60;59.30;;;;;;5077952;28;20229;-61
2020/12/12 07:53:25;;;;;;;10.13;9.23;;;8.70;59.30;;;;;;5077721;28;20745;-58
2020/12/12 07:55:59;;;;;;;10.50;9.50;;;8.80;59.30;;;;;;5079017;28;20317;-57
2020/12/12 07:58:30;;;;;;;9.80;9.00;;;8.80;59.10;;;;;;5079579;28;20207;-61
2020/12/12 08:00:58;;;;;;;10.60;9.60;;;8.80;59.00;;;;;;5078029;28;20247;-60
2020/12/12 08:03:24;;;;;;;9.53;8.73;;;8.80;58.90;;;;;;5078144;28;20216;-57
2020/12/12 08:06:04;;;;;;;9.90;9.10;;;8.90;58.90;;;;;;5076545;28;20208;-57
2020/12/12 08:08:31;;;;;;;9.47;8.67;;;8.90;58.70;;;;;;5079715;28;20200;-60
2020/12/12 08:10:59;;;;;;;9.50;8.60;;;8.90;58.90;;;;;;5077545;28;20243;-57
2020/12/12 08:13:28;;;;;;;9.03;8.23;;;8.90;58.90;;;;;;5074850;28;20205;-59
2020/12/12 08:16:08;;;;;;;8.80;8.00;;;8.90;59.00;;;;;;5078826;28;20240;-58
2020/12/12 08:18:35;;;;;;;8.77;8.07;;;9.00;58.90;;;;;;5077687;28;20697;-55
2020/12/12 08:21:13;;;;;;;8.17;7.50;;;9.00;59.00;;;;;;5078071;28;20235;-57
2020/12/12 08:23:41;;;;;;;8.50;7.80;;;9.00;58.80;;;;;;5077901;28;20207;-59
2020/12/12 08:26:13;;;;;;;8.77;8.07;;;9.00;58.90;;;;;;5076408;28;20244;-57
2020/12/12 08:28:40;;;;;;;8.93;8.13;;;9.10;58.70;;;;;;5079680;28;20204;-58
2020/12/12 08:31:15;;;;;;;8.83;8.13;;;9.10;58.70;;;;;;5075959;28;20872;-55
2020/12/12 08:33:45;;;;;;;8.13;7.50;;;9.10;58.60;;;;;;5077705;28;20662;-57
2020/12/12 08:36:17;;;;;;;8.53;7.83;;;9.10;58.70;;;;;;5076630;28;20227;-55
2020/12/12 08:38:53;;;;;;;8.57;7.77;;;9.10;58.90;;;;;;5076538;28;20661;-60
2020/12/12 08:41:27;;;;;;;8.33;7.53;;;9.10;58.90;;;;;;5074254;28;20508;-57
2020/12/12 08:43:53;;;;;;;8.53;7.80;;;9.10;59.00;;;;;;5076888;28;20204;-57
2020/12/12 08:46:19;;;;;;;8.03;7.33;;;9.20;59.10;;;;;;5079121;28;20208;-56
2020/12/12 08:48:46;;;;;;;8.10;7.40;;;9.20;59.00;;;;;;5076263;28;20209;-58
2020/12/12 08:51:12;;;;;;;7.60;6.97;;;9.20;58.90;;;;;;5076550;28;20228;-60
2020/12/12 08:53:41;;;;;;;7.53;6.83;;;9.30;58.90;;;;;;5075599;28;20207;-57
2020/12/12 08:56:12;;;;;;;8.00;7.30;;;9.30;58.80;;;;;;5076781;28;20231;-58
2020/12/12 08:58:45;;;;;;;6.83;6.33;;;9.40;58.70;;;;;;5076050;28;20245;-58
2020/12/12 09:01:38;;;;;;;6.80;6.20;;;9.40;58.70;;;;;;5077981;28;20697;-59
2020/12/12 09:04:20;;;;;;;7.30;6.70;;;9.40;58.60;;;;;;5078239;28;20201;-59
2020/12/12 09:06:54;;;;;;;6.80;6.20;;;9.50;58.80;;;;;;5075794;28;20208;-60
2020/12/12 09:09:24;;;;;;;7.20;6.10;;;9.50;58.80;;;;;;5080052;28;20695;-56
2020/12/12 09:11:58;;;;;;;6.27;5.77;;;9.60;58.80;;;;;;5076667;28;20930;-57
2020/12/12 09:14:28;;;;;;;6.83;6.23;;;9.70;58.70;;;;;;5076772;28;20215;-57
2020/12/12 09:16:57;;;;;;;6.73;6.03;;;9.70;58.60;;;;;;5077359;28;20228;-57
2020/12/12 09:19:25;;;;;;;7.03;6.43;;;9.80;58.60;;;;;;5077250;28;20275;-61
2020/12/12 09:21:52;;;;;;;7.07;6.47;;;9.90;58.50;;;;;;5079119;28;20273;-60
2020/12/12 09:24:21;;;;;;;6.97;6.33;;;9.90;58.50;;;;;;5070459;28;20298;-58
2020/12/12 09:26:50;;;;;;;7.53;6.83;;;9.90;58.50;;;;;;5075973;28;20193;-66
2020/12/12 09:29:18;;;;;;;6.27;5.77;;;10.00;58.60;;;;;;5075289;28;20207;-70
2020/12/12 09:31:46;;;;;;;7.67;6.97;;;10.00;58.60;;;;;;5075568;28;20741;-66
2020/12/12 09:34:13;;;;;;;7.67;6.97;;;10.00;58.60;;;;;;5078374;28;20258;-61
2020/12/12 09:36:39;;;;;;;6.97;6.37;;;10.00;58.50;;;;;;5078345;28;20251;-61
2020/12/12 09:39:06;;;;;;;5.87;5.37;;;10.00;58.50;;;;;;5078941;28;20207;-60
2020/12/12 09:41:33;;;;;;;5.57;5.17;;;10.00;58.60;;;;;;5073624;28;20227;-62
2020/12/12 09:43:59;;;;;;;5.77;5.27;;;10.00;58.60;;;;;;5076905;28;20205;-62
2020/12/12 09:46:26;;;;;;;5.60;5.10;;;10.10;58.90;;;;;;5077704;28;20690;-62
2020/12/12 09:48:53;;;;;;;5.00;4.60;;;10.10;59.10;;;;;;5074951;28;20211;-66
2020/12/12 09:51:20;;;;;;;5.10;4.70;;;10.10;59.40;;;;;;5077042;28;20224;-66
2020/12/12 09:53:47;;;;;;;5.27;4.80;;;10.20;59.40;;;;;;5076117;28;20228;-62
2020/12/12 09:56:16;;;;;;;4.63;4.23;;;10.20;59.50;;;;;;5076075;28;20224;-62
2020/12/12 09:58:43;;;;;;;4.80;4.40;;;10.30;59.50;;;;;;5075958;28;20258;-65
2020/12/12 10:01:10;;;;;;;5.13;4.73;;;10.40;59.50;;;;;;5075983;28;20748;-64
2020/12/12 10:03:36;;;;;;;5.10;4.70;;;10.50;59.30;;;;;;5077109;28;20205;-65
2020/12/12 10:06:07;;;;;;;5.40;5.00;;;10.50;59.20;;;;;;5073063;28;20228;-68
2020/12/12 10:08:34;;;;;;;5.37;4.97;;;10.60;58.90;;;;;;5077688;28;20196;-67
2020/12/12 10:11:00;;;;;;;4.97;4.57;;;10.70;58.70;;;;;;5076517;28;20323;-68
2020/12/12 10:13:27;;;;;;;5.47;4.37;;;10.70;58.50;;;;;;5074117;28;20204;-66
2020/12/12 10:15:53;;;;;;;5.07;4.67;;;10.80;58.50;;;;;;5076655;28;20274;-66
2020/12/12 10:18:20;;;;;;;5.10;4.70;;;10.80;58.60;;;;;;5075955;28;20205;-66
2020/12/12 10:20:46;;;;;;;4.93;4.53;;;10.90;58.70;;;;;;5075629;28;20236;-68
2020/12/12 10:23:13;;;;;;;5.23;4.83;;;10.90;58.60;;;;;;5075603;28;20201;-68
2020/12/12 10:25:41;;;;;;;5.23;4.73;;;10.90;58.60;;;;;;5075511;28;20215;-69
2020/12/12 10:28:07;;;;;;;4.67;4.27;;;10.90;58.70;;;;;;5074409;28;20300;-69
2020/12/12 10:30:34;;;;;;;4.23;3.93;;;10.80;58.80;;;;;;5078737;28;20224;-66
2020/12/12 10:33:03;;;;;;;3.87;3.57;;;10.70;59.00;;;;;;5080264;28;20197;-68
2020/12/12 10:35:31;;;;;;;4.40;4.00;;;10.60;59.80;;;;;;5081063;28;20229;-68
2020/12/12 10:37:59;;;;;;;4.30;3.90;;;10.50;61.00;;;;;;5079445;28;20212;-68
2020/12/12 10:40:32;;;;;;;4.63;4.23;;;10.40;62.20;;;;;;5077032;28;20670;-66
2020/12/12 10:42:58;;;;;;;4.77;4.37;;;10.40;63.20;;;;;;5078439;28;20588;-67
2020/12/12 10:45:25;;;;;;;4.87;4.47;;;10.50;63.90;;;;;;5075753;28;20205;-66
2020/12/12 10:47:51;;;;;;;5.13;4.73;;;10.60;64.90;;;;;;5078636;28;20224;-66
2020/12/12 10:50:18;;;;;;;4.63;4.23;;;10.80;66.40;;;;;;5080294;28;20578;-66
2020/12/12 10:52:44;;;;;;;4.67;4.27;;;11.10;67.30;;;;;;5076048;28;20201;-67
2020/12/12 10:55:10;;;;;;;4.53;4.13;;;11.50;67.00;;;;;;5078878;28;20201;-67
2020/12/12 10:57:38;;;;;;;3.63;3.33;;;11.90;66.40;;;;;;5078427;28;20598;-67
2020/12/12 11:00:06;;;;;;;3.93;3.63;;;12.40;65.00;;;;;;5075036;28;20236;-66
2020/12/12 11:02:34;;;;;;;4.13;3.73;;;12.90;64.30;;;;;;5076978;28;20273;-66
2020/12/12 11:05:01;;;;;;;3.87;3.50;;;13.30;62.00;;;;;;5079597;28;20196;-66
2020/12/12 11:07:28;;;;;;;3.57;3.27;;;13.60;60.60;;;;;;5079618;28;20677;-66
2020/12/12 11:09:54;;;;;;;3.80;3.50;;;13.80;59.60;;;;;;5076696;28;20239;-67
2020/12/12 11:12:20;;;;;;;3.27;2.97;;;13.90;59.10;;;;;;5080263;28;20197;-66
2020/12/12 11:14:52;;;;;;;3.07;2.87;;;14.10;58.60;;;;;;5078061;28;20244;-66
2020/12/12 11:17:19;;;;;;;3.37;3.07;;;14.20;58.10;;;;;;5075327;28;20227;-65
2020/12/12 11:19:45;;;;;;;3.50;2.77;;;14.30;57.70;;;;;;5078828;28;20232;-65
2020/12/12 11:22:12;;;;;;;3.50;3.20;;;14.30;57.40;;;;;;5077254;28;20213;-65
2020/12/12 11:24:38;;;;;;;3.37;3.07;;;14.30;57.00;;;;;;5078927;28;20240;-66
2020/12/12 11:27:04;;;;;;;3.40;3.00;;;14.20;56.80;;;;;;5076354;28;20201;-68
2020/12/12 11:29:31;;;;;;;3.17;2.97;;;14.20;56.70;;;;;;5078694;28;20204;-65
2020/12/12 11:31:58;;;;;;;3.37;3.07;;;14.20;56.70;;;;;;5075369;28;20689;-64
2020/12/12 11:34:26;;;;;;;3.40;3.10;;;14.10;56.60;;;;;;5079225;28;20348;-66
2020/12/12 11:37:16;;;;;;;3.50;3.20;;;14.10;56.50;;;;;;5075952;28;20321;-65
2020/12/12 11:39:50;;;;;;;3.00;2.80;;;14.00;56.40;;;;;;5076749;28;20215;-67
2020/12/12 11:47:47;;;;;;;2.70;2.37;;;13.90;56.50;;;;;;5075364;28;20200;-65
2020/12/12 11:50:14;;;;;;;2.33;2.13;;;13.90;56.50;;;;;;5078602;28;20225;-66
2020/12/12 11:52:43;;;;;;;2.97;2.30;;;13.90;56.50;;;;;;5078238;28;20201;-64
2020/12/12 11:55:10;;;;;;;2.67;2.47;;;13.90;56.60;;;;;;5074639;28;20455;-64
2020/12/12 11:57:37;;;;;;;2.20;2.00;;;14.00;56.60;;;;;;5076180;28;20209;-63
2020/12/12 12:00:09;;;;;;;2.30;2.10;;;14.00;56.40;;;;;;5075483;28;20240;-64
2020/12/12 12:02:36;;;;;;;2.13;1.93;;;14.10;56.20;;;;;;5075634;28;20205;-64
2020/12/12 12:05:04;;;;;;;2.10;2.00;;;14.20;56.20;;;;;;5074791;28;20674;-65
2020/12/12 12:07:31;;;;;;;2.20;2.00;;;14.20;56.60;;;;;;5076422;28;20207;-64
2020/12/12 12:10:07;;;;;;;1.77;1.67;;;14.20;55.80;;;;;;5078035;28;20278;-63
2020/12/12 12:12:34;;;;;;;2.30;2.10;;;14.20;55.70;;;;;;5079193;28;20596;-66
2020/12/12 12:15:00;;;;;;;2.07;1.97;;;14.20;55.70;;;;;;5076757;28;20211;-64
2020/12/12 12:17:27;;;;;;;2.20;1.97;;;14.20;55.50;;;;;;5077246;28;20220;-65
2020/12/12 12:19:53;;;;;;;2.00;1.80;;;14.10;55.60;;;;;;5077091;28;20224;-67
2020/12/12 12:22:20;;;;;;;2.77;2.07;;;14.00;55.50;;;;;;5075247;28;20216;-65
2020/12/12 12:24:47;;;;;;;2.20;2.10;;;14.00;55.40;;;;;;5076617;28;20212;-65
2020/12/12 12:27:13;;;;;;;2.53;2.37;;;13.90;55.50;;;;;;5075945;28;20295;-65
2020/12/12 12:29:39;;;;;;;2.30;2.10;;;13.90;55.70;;;;;;5077499;28;20203;-66
2020/12/12 12:32:06;;;;;;;1.70;1.60;;;13.80;55.80;;;;;;5075567;28;20212;-65
2020/12/12 12:34:32;;;;;;;2.70;2.37;;;13.80;55.90;;;;;;5077223;28;20200;-66
2020/12/12 12:36:59;;;;;;;2.13;2.03;;;13.80;56.00;;;;;;5077308;28;20226;-63
2020/12/12 12:39:26;;;;;;;2.40;2.20;;;13.70;56.00;;;;;;5074949;28;20200;-65
2020/12/12 12:41:52;;;;;;;2.10;2.00;;;13.70;56.20;;;;;;5075341;28;20211;-65
2020/12/12 12:44:19;;;;;;;2.10;1.90;;;13.70;56.50;;;;;;5075850;28;20550;-64
2020/12/12 12:46:49;;;;;;;1.80;1.70;;;13.70;56.70;;;;;;5075687;28;20208;-64
2020/12/12 12:49:15;;;;;;;2.37;2.17;;;13.70;56.80;;;;;;5074554;28;21144;-63
2020/12/12 12:51:42;;;;;;;2.00;1.80;;;13.70;56.90;;;;;;5073352;28;20224;-68
2020/12/12 12:54:08;;;;;;;1.80;1.70;;;13.60;57.10;;;;;;5076522;28;20209;-64
2020/12/12 12:56:36;;;;;;;2.33;2.10;;;13.60;57.00;;;;;;5073414;28;20231;-64
2020/12/12 12:59:03;;;;;;;1.83;1.73;;;13.60;57.00;;;;;;5076227;28;20204;-62
2020/12/12 13:01:29;;;;;;;1.77;1.67;;;13.50;57.10;;;;;;5077106;28;20247;-65